createdAt,value
2023-05-09T00:02:02.844Z,22.73
2023-05-09T00:04:30.143Z,23.02
2023-05-09T00:06:56.590Z,23.10
2023-05-09T00:09:22.969Z,23.67
2023-05-09T00:11:49.586Z,23.83
2023-05-09T00:14:18.256Z,21.45
2023-05-09T00:16:45.424Z,21.95
2023-05-09T00:19:12.968Z,22.38
2023-05-09T00:21:39.454Z,22.30
2023-05-09T00:24:06.277Z,22.20
2023-05-09T00:26:32.738Z,21.83
2023-05-09T00:28:59.732Z,22.02
2023-05-09T00:31:26.286Z,21.48
2023-05-09T00:33:53.992Z,20.08
2023-05-09T00:36:20.475Z,20.98
2023-05-09T00:38:47.268Z,19.40
2023-05-09T00:41:13.736Z,19.02
2023-05-09T00:43:40.185Z,20.13
2023-05-09T00:46:06.931Z,20.15
2023-05-09T00:48:33.503Z,20.23
2023-05-09T00:51:00.010Z,19.50
2023-05-09T00:53:26.655Z,18.98
2023-05-09T00:55:55.656Z,20.40
2023-05-09T00:58:22.249Z,20.58
2023-05-09T01:00:48.780Z,19.65
2023-05-09T01:03:15.737Z,20.35
2023-05-09T01:06:11.069Z,20.10
2023-05-09T01:09:02.050Z,19.77
2023-05-09T01:11:34.446Z,19.83
2023-05-09T01:14:12.974Z,20.10
2023-05-09T01:16:43.622Z,20.30
2023-05-09T01:19:38.314Z,20.70
2023-05-09T01:22:08.957Z,19.75
2023-05-09T01:24:50.635Z,21.25
2023-05-09T01:27:50.716Z,21.15
2023-05-09T01:30:18.676Z,19.95
2023-05-09T01:32:49.697Z,20.30
2023-05-09T01:35:17.300Z,20.90
2023-05-09T01:37:48.947Z,20.55
2023-05-09T01:40:17.523Z,21.20
2023-05-09T01:42:48.524Z,20.02
2023-05-09T01:45:17.626Z,19.98
2023-05-09T01:47:44.745Z,19.10
2023-05-09T01:50:12.618Z,19.92
2023-05-09T01:52:41.497Z,19.83
2023-05-09T01:55:09.924Z,21.45
2023-05-09T01:57:38.400Z,22.08
2023-05-09T02:00:07.895Z,21.98
2023-05-09T02:02:40.312Z,23.13
2023-05-09T02:05:09.873Z,21.88
2023-05-09T02:07:37.128Z,21.77
2023-05-09T02:10:04.861Z,23.30
2023-05-09T02:12:31.457Z,21.80
2023-05-09T02:14:57.995Z,23.05
2023-05-09T02:17:24.613Z,21.33
2023-05-09T02:19:51.063Z,22.38
2023-05-09T02:22:17.826Z,23.27
2023-05-09T02:24:45.504Z,23.83
2023-05-09T02:27:12.892Z,22.45
2023-05-09T02:29:44.370Z,22.60
2023-05-09T02:32:16.548Z,22.75
2023-05-09T02:34:44.752Z,22.35
2023-05-09T02:37:11.524Z,22.15
2023-05-09T02:39:38.097Z,22.77
2023-05-09T02:42:10.377Z,23.33
2023-05-09T02:44:37.360Z,23.50
2023-05-09T02:47:06.828Z,25.10
2023-05-09T02:49:34.067Z,24.02
2023-05-09T02:52:02.796Z,25.52
2023-05-09T02:54:29.648Z,24.63
2023-05-09T02:56:56.326Z,26.20
2023-05-09T02:59:22.782Z,25.95
2023-05-09T03:01:49.630Z,24.83
2023-05-09T03:04:16.555Z,25.50
2023-05-09T03:06:43.222Z,24.90
2023-05-09T03:09:10.125Z,24.50
2023-05-09T03:11:37.136Z,23.65
2023-05-09T03:14:04.200Z,25.45
2023-05-09T03:16:31.102Z,24.90
2023-05-09T03:18:58.201Z,27.08
2023-05-09T03:21:24.701Z,26.20
2023-05-09T03:23:51.276Z,26.27
2023-05-09T03:26:17.835Z,25.05
2023-05-09T03:28:44.715Z,26.02
2023-05-09T03:31:11.236Z,26.17
2023-05-09T03:33:37.689Z,24.65
2023-05-09T03:36:05.268Z,24.67
2023-05-09T03:38:31.913Z,23.88
2023-05-09T03:40:58.768Z,24.48
2023-05-09T03:43:26.291Z,24.15
2023-05-09T03:45:52.764Z,25.02
2023-05-09T03:48:19.219Z,26.40
2023-05-09T03:50:50.099Z,27.45
2023-05-09T03:53:16.678Z,28.75
2023-05-09T03:55:45.529Z,26.67
2023-05-09T03:58:13.563Z,26.70
2023-05-09T04:00:42.223Z,26.92
2023-05-09T04:03:14.537Z,28.00
2023-05-09T04:05:45.662Z,25.25
2023-05-09T04:08:20.812Z,25.00
2023-05-09T04:10:47.506Z,26.15
2023-05-09T04:13:14.076Z,24.83
2023-05-09T04:15:41.034Z,24.80
2023-05-09T04:18:07.731Z,25.58
2023-05-09T04:20:34.421Z,24.88
2023-05-09T04:23:01.452Z,25.73
2023-05-09T04:25:29.398Z,27.00
2023-05-09T04:27:56.607Z,26.42
2023-05-09T04:30:23.776Z,27.08
2023-05-09T04:32:50.567Z,27.42
2023-05-09T04:35:19.772Z,25.88
2023-05-09T04:37:48.488Z,26.50
2023-05-09T04:40:14.989Z,26.98
2023-05-09T04:42:51.891Z,27.17
2023-05-09T04:45:21.844Z,27.80
2023-05-09T04:47:48.361Z,26.77
2023-05-09T04:50:14.808Z,26.95
2023-05-09T04:52:41.243Z,28.00
2023-05-09T04:55:08.242Z,26.98
2023-05-09T04:57:38.962Z,28.27
2023-05-09T05:00:11.339Z,26.38
2023-05-09T05:02:38.204Z,25.90
2023-05-09T05:05:13.333Z,27.30
2023-05-09T05:07:42.634Z,25.85
2023-05-09T05:10:11.312Z,27.23
2023-05-09T05:12:40.032Z,27.67
2023-05-09T05:15:09.795Z,26.67
2023-05-09T05:17:37.305Z,26.27
2023-05-09T05:20:06.639Z,26.00
2023-05-09T05:22:33.519Z,26.42
2023-05-09T05:25:00.042Z,27.00
2023-05-09T05:27:26.901Z,25.65
2023-05-09T05:29:53.593Z,25.27
2023-05-09T05:32:20.616Z,24.88
2023-05-09T05:34:47.585Z,24.67
2023-05-09T05:37:14.377Z,23.98
2023-05-09T05:39:41.757Z,25.02
2023-05-09T05:42:08.635Z,25.83
2023-05-09T05:44:35.429Z,25.02
2023-05-09T05:47:02.011Z,25.33
2023-05-09T05:49:28.498Z,25.73
2023-05-09T05:51:54.976Z,25.33
2023-05-09T05:54:22.196Z,24.77
2023-05-09T05:56:48.976Z,25.50
2023-05-09T05:59:16.274Z,23.85
2023-05-09T06:01:43.328Z,24.25
2023-05-09T06:04:10.258Z,23.95
2023-05-09T06:06:37.013Z,23.70
2023-05-09T06:09:03.473Z,22.63
2023-05-09T06:11:30.022Z,23.58
2023-05-09T06:13:56.505Z,23.02
2023-05-09T06:16:23.686Z,24.60
2023-05-09T06:18:52.662Z,22.90
2023-05-09T06:21:21.220Z,21.63
2023-05-09T06:24:04.258Z,23.65
2023-05-09T06:26:32.795Z,22.92
2023-05-09T06:28:59.289Z,21.73
2023-05-09T06:31:26.188Z,22.50
2023-05-09T06:33:53.078Z,22.20
2023-05-09T06:36:19.671Z,22.23
2023-05-09T06:38:46.273Z,21.17
2023-05-09T06:41:12.737Z,21.63
2023-05-09T06:43:39.176Z,21.95
2023-05-09T06:46:05.773Z,21.65
2023-05-09T06:48:32.278Z,21.85
2023-05-09T06:50:58.929Z,21.85
2023-05-09T06:53:25.394Z,21.20
2023-05-09T06:55:51.803Z,21.90
2023-05-09T06:58:18.264Z,22.05
2023-05-09T07:00:44.781Z,21.20
2023-05-09T07:03:11.692Z,21.75
2023-05-09T07:05:38.261Z,22.60
2023-05-09T07:08:04.704Z,21.95
2023-05-09T07:10:31.363Z,22.63
2023-05-09T07:12:58.054Z,22.38
2023-05-09T07:15:37.184Z,22.63
2023-05-09T07:18:07.482Z,23.15
2023-05-09T07:20:33.918Z,23.00
2023-05-09T07:23:00.529Z,22.58
2023-05-09T07:25:26.991Z,24.38
2023-05-09T07:27:53.460Z,24.50
2023-05-09T07:30:19.968Z,23.73
2023-05-09T07:32:46.650Z,23.67
2023-05-09T07:35:13.356Z,24.52
2023-05-09T07:37:40.620Z,24.08
2023-05-09T07:40:07.718Z,24.67
2023-05-09T07:42:34.245Z,22.50
2023-05-09T07:45:00.785Z,24.58
2023-05-09T07:47:27.297Z,24.95
2023-05-09T07:49:53.752Z,23.98
2023-05-09T07:52:20.167Z,26.02
2023-05-09T07:54:46.615Z,25.60
2023-05-09T07:57:13.090Z,25.17
2023-05-09T07:59:39.524Z,26.55
2023-05-09T08:02:06.445Z,25.52
2023-05-09T08:04:33.008Z,25.15
2023-05-09T08:06:59.628Z,26.20
2023-05-09T08:09:26.569Z,26.90
2023-05-09T08:11:53.050Z,26.33
2023-05-09T08:14:19.496Z,25.13
2023-05-09T08:16:45.962Z,27.48
2023-05-09T08:19:12.412Z,26.42
2023-05-09T08:21:38.837Z,26.95
2023-05-09T08:24:07.892Z,25.15
2023-05-09T08:26:35.209Z,25.92
2023-05-09T08:29:01.983Z,25.83
2023-05-09T08:31:28.761Z,26.20
2023-05-09T08:33:55.326Z,24.63
2023-05-09T08:36:21.762Z,24.45
2023-05-09T08:38:49.449Z,24.35
2023-05-09T08:41:16.325Z,25.75
2023-05-09T08:43:43.640Z,25.13
2023-05-09T08:46:11.634Z,24.08
2023-05-09T08:48:38.771Z,26.02
2023-05-09T08:51:06.890Z,25.35
2023-05-09T08:53:34.277Z,25.17
2023-05-09T08:56:03.626Z,23.38
2023-05-09T08:58:31.428Z,23.67
2023-05-09T09:00:59.022Z,25.08
2023-05-09T09:03:26.291Z,26.25
2023-05-09T09:05:54.774Z,24.02
2023-05-09T09:08:22.894Z,25.15
2023-05-09T09:10:49.771Z,23.63
2023-05-09T09:13:17.860Z,24.70
2023-05-09T09:15:46.494Z,25.20
2023-05-09T09:18:18.093Z,24.83
2023-05-09T09:20:59.733Z,26.52
2023-05-09T09:23:27.225Z,23.65
2023-05-09T09:26:03.016Z,25.88
2023-05-09T09:28:29.673Z,24.83
2023-05-09T09:30:56.314Z,23.73
2023-05-09T09:33:24.188Z,24.63
2023-05-09T09:35:52.226Z,23.30
2023-05-09T09:38:20.636Z,23.85
2023-05-09T09:40:57.688Z,22.83
2023-05-09T09:43:31.326Z,22.70
2023-05-09T09:46:01.716Z,21.90
2023-05-09T09:48:33.617Z,22.75
2023-05-09T09:51:11.205Z,21.15
2023-05-09T09:53:41.736Z,23.13
2023-05-09T09:56:08.345Z,21.17
2023-05-09T09:58:34.989Z,22.75
2023-05-09T10:01:20.790Z,21.65
2023-05-09T10:03:47.937Z,21.90
2023-05-09T10:06:16.449Z,20.92
2023-05-09T10:08:46.750Z,20.20
2023-05-09T10:11:13.748Z,20.30
2023-05-09T10:13:40.521Z,19.52
2023-05-09T10:16:09.019Z,19.20
2023-05-09T10:18:36.524Z,15.73
2023-05-09T10:21:05.527Z,17.42
2023-05-09T10:23:37.016Z,18.35
2023-05-09T10:26:28.975Z,19.05
2023-05-09T10:28:57.384Z,19.60
2023-05-09T10:31:27.894Z,18.67
2023-05-09T10:33:58.691Z,19.20
2023-05-09T10:36:25.363Z,19.27
2023-05-09T10:38:54.943Z,18.75
2023-05-09T10:41:22.214Z,17.98
2023-05-09T10:43:48.821Z,19.60
2023-05-09T10:46:16.284Z,18.63
2023-05-09T10:48:43.589Z,18.92
2023-05-09T10:51:10.649Z,17.58
2023-05-09T10:53:43.551Z,18.25
2023-05-09T10:56:22.857Z,16.65
2023-05-09T10:58:49.296Z,16.95
2023-05-09T11:01:36.844Z,18.15
2023-05-09T11:04:10.959Z,17.13
2023-05-09T11:06:53.998Z,17.88
2023-05-09T11:09:32.851Z,18.60
2023-05-09T11:12:05.817Z,18.58
2023-05-09T11:14:44.709Z,16.30
2023-05-09T11:17:12.634Z,17.30
2023-05-09T11:19:47.854Z,12.30
2023-05-09T11:22:21.236Z,12.70
2023-05-09T11:24:49.539Z,14.05
2023-05-09T11:27:16.783Z,17.25
2023-05-09T11:29:45.652Z,17.25
2023-05-09T11:32:14.557Z,16.73
2023-05-09T11:34:44.437Z,16.23
2023-05-09T11:37:17.514Z,16.42
2023-05-09T11:39:58.824Z,17.00
2023-05-09T11:42:29.431Z,11.75
2023-05-09T11:44:57.643Z,10.82
2023-05-09T11:47:25.113Z,16.60
2023-05-09T11:49:52.092Z,14.30
2023-05-09T11:52:19.937Z,10.38
2023-05-09T11:54:46.398Z,11.48
2023-05-09T11:57:17.274Z,13.88
2023-05-09T11:59:45.358Z,10.68
2023-05-09T12:02:12.033Z,15.32
2023-05-09T12:04:38.890Z,11.32
2023-05-09T12:07:05.681Z,10.55
2023-05-09T12:09:34.408Z,11.25
2023-05-09T12:12:01.332Z,10.88
2023-05-09T12:14:32.402Z,8.35
2023-05-09T12:16:58.832Z,9.27
2023-05-09T12:19:26.167Z,8.55
2023-05-09T12:21:59.124Z,6.50
2023-05-09T12:24:26.971Z,7.20
2023-05-09T12:26:57.707Z,6.85
2023-05-09T12:29:25.292Z,8.48
2023-05-09T12:31:55.383Z,10.00
2023-05-09T12:34:22.033Z,10.98
2023-05-09T12:36:50.853Z,8.68
2023-05-09T12:39:22.912Z,8.38
2023-05-09T12:42:00.925Z,9.75
2023-05-09T12:44:29.725Z,9.75
2023-05-09T12:47:01.470Z,8.00
2023-05-09T12:49:29.285Z,8.45
2023-05-09T12:51:58.094Z,8.98
2023-05-09T12:54:28.976Z,7.05
2023-05-09T12:59:24.796Z,7.82
2023-05-09T13:02:01.864Z,7.82
2023-05-09T13:04:28.970Z,7.35
2023-05-09T13:06:57.692Z,8.00
2023-05-09T13:09:26.199Z,8.15
2023-05-09T13:11:53.657Z,8.05
2023-05-09T13:14:21.819Z,7.85
2023-05-09T13:16:48.514Z,8.05
2023-05-09T13:19:15.003Z,6.47
2023-05-09T13:21:41.447Z,6.20
2023-05-09T13:24:08.114Z,6.05
2023-05-09T13:26:34.631Z,5.35
2023-05-09T13:29:01.123Z,5.85
2023-05-09T13:31:27.752Z,5.10
2023-05-09T13:33:54.193Z,4.22
2023-05-09T13:36:20.999Z,4.90
2023-05-09T13:38:47.686Z,4.97
2023-05-09T13:41:19.955Z,3.97
2023-05-09T13:43:46.771Z,5.18
2023-05-09T13:46:13.552Z,3.85
2023-05-09T13:48:40.215Z,4.40
2023-05-09T13:51:07.836Z,3.55
2023-05-09T13:53:35.344Z,3.15
2023-05-09T13:56:03.300Z,3.28
2023-05-09T13:58:29.745Z,3.33
2023-05-09T14:00:56.177Z,3.63
2023-05-09T14:03:22.697Z,4.65
2023-05-09T14:05:49.431Z,4.43
2023-05-09T14:08:16.613Z,4.95
2023-05-09T14:10:44.467Z,4.28
2023-05-09T14:13:12.433Z,3.80
2023-05-09T14:15:40.180Z,3.60
2023-05-09T14:18:06.780Z,4.55
2023-05-09T14:20:35.869Z,4.93
2023-05-09T14:23:02.302Z,4.20
2023-05-09T14:25:29.324Z,3.83
2023-05-09T14:27:55.754Z,3.20
2023-05-09T14:30:22.995Z,3.10
2023-05-09T14:32:49.477Z,3.92
2023-05-09T14:35:16.181Z,3.05
2023-05-09T14:37:42.805Z,3.10
2023-05-09T14:40:09.740Z,3.03
2023-05-09T14:42:36.990Z,3.17
2023-05-09T14:45:04.724Z,3.20
2023-05-09T14:47:31.353Z,3.40
2023-05-09T14:49:57.906Z,3.80
2023-05-09T14:52:24.402Z,3.90
2023-05-09T14:54:50.865Z,4.55
2023-05-09T14:57:17.345Z,4.38
2023-05-09T14:59:43.873Z,4.47
2023-05-09T15:02:10.332Z,5.10
2023-05-09T15:04:36.808Z,4.32
2023-05-09T15:07:03.239Z,4.20
2023-05-09T15:09:29.686Z,4.60
2023-05-09T15:11:56.402Z,4.63
2023-05-09T15:14:22.823Z,4.82
2023-05-09T15:16:51.529Z,5.85
2023-05-09T15:19:18.218Z,4.90
2023-05-09T15:21:44.971Z,5.05
2023-05-09T15:24:12.065Z,6.97
2023-05-09T15:26:38.506Z,7.47
2023-05-09T15:29:04.996Z,6.50
2023-05-09T15:31:32.760Z,5.95
2023-05-09T15:33:59.792Z,7.60
2023-05-09T15:36:29.944Z,7.07
2023-05-09T15:38:56.371Z,7.75
2023-05-09T15:41:23.167Z,6.85
2023-05-09T15:43:49.811Z,5.95
2023-05-09T15:46:16.982Z,6.40
2023-05-09T15:48:43.549Z,5.63
2023-05-09T15:51:10.103Z,7.32
2023-05-09T15:53:36.735Z,8.43
2023-05-09T15:56:03.720Z,7.32
2023-05-09T15:58:30.637Z,6.78
2023-05-09T16:00:57.093Z,9.10
2023-05-09T16:03:24.813Z,7.18
2023-05-09T16:05:52.165Z,7.45
2023-05-09T16:08:18.880Z,11.18
2023-05-09T16:10:48.900Z,8.13
2023-05-09T16:13:17.782Z,7.23
2023-05-09T16:15:45.362Z,6.35
2023-05-09T16:18:12.133Z,7.85
2023-05-09T16:20:38.679Z,7.68
2023-05-09T16:23:05.162Z,8.35
2023-05-09T16:25:33.355Z,7.43
2023-05-09T16:28:01.003Z,6.70
2023-05-09T16:30:27.465Z,8.82
2023-05-09T16:32:54.020Z,8.73
2023-05-09T16:35:20.518Z,9.32
2023-05-09T16:37:47.229Z,9.00
2023-05-09T16:40:14.928Z,9.93
2023-05-09T16:42:42.927Z,10.43
2023-05-09T16:45:09.937Z,10.82
2023-05-09T16:47:36.824Z,11.70
2023-05-09T16:50:04.620Z,11.40
2023-05-09T16:52:31.231Z,10.68
2023-05-09T16:54:59.293Z,11.38
2023-05-09T16:57:26.023Z,11.93
2023-05-09T16:59:53.397Z,13.43
2023-05-09T17:02:19.939Z,13.50
2023-05-09T17:04:46.662Z,11.30
2023-05-09T17:07:14.411Z,11.13
2023-05-09T17:09:41.097Z,11.45
2023-05-09T17:12:07.552Z,11.50
2023-05-09T17:14:34.020Z,10.55
2023-05-09T17:17:00.585Z,10.65
2023-05-09T17:19:27.091Z,9.55
2023-05-09T17:21:55.988Z,10.50
2023-05-09T17:24:22.453Z,9.52
2023-05-09T17:26:50.125Z,9.50
2023-05-09T17:29:16.610Z,10.48
2023-05-09T17:31:43.066Z,9.90
2023-05-09T17:34:09.573Z,9.52
2023-05-09T17:36:36.208Z,9.48
2023-05-09T17:39:02.658Z,10.52
2023-05-09T17:41:29.107Z,10.80
2023-05-09T17:43:57.362Z,15.05
2023-05-09T17:46:24.585Z,11.43
2023-05-09T17:48:51.309Z,11.32
2023-05-09T17:51:17.901Z,9.90
2023-05-09T17:53:44.322Z,10.98
2023-05-09T17:56:10.779Z,12.15
2023-05-09T17:58:37.215Z,9.90
2023-05-09T18:01:03.753Z,8.52
2023-05-09T18:03:32.177Z,8.50
2023-05-09T18:06:00.227Z,8.30
2023-05-09T18:08:26.758Z,8.02
2023-05-09T18:10:56.326Z,8.45
2023-05-09T18:13:23.151Z,8.27
2023-05-09T18:15:49.798Z,7.93
2023-05-09T18:18:16.302Z,8.13
2023-05-09T18:20:42.823Z,8.50
2023-05-09T18:23:09.313Z,8.88
2023-05-09T18:25:35.804Z,8.13
2023-05-09T18:28:02.444Z,8.88
2023-05-09T18:30:29.029Z,8.13
2023-05-09T18:33:00.081Z,7.72
2023-05-09T18:37:53.382Z,2.58
2023-05-09T18:40:20.017Z,2.83
2023-05-09T18:42:46.586Z,2.75
2023-05-09T18:45:13.243Z,4.15
2023-05-09T18:47:39.767Z,3.53
2023-05-09T18:50:07.249Z,3.72
2023-05-09T18:52:34.376Z,4.07
2023-05-09T18:55:00.901Z,4.00
2023-05-09T18:57:28.276Z,3.83
2023-05-09T18:59:55.017Z,3.75
2023-05-09T19:02:22.346Z,3.70
2023-05-09T19:04:50.456Z,4.28
2023-05-09T19:07:17.205Z,4.18
2023-05-09T19:09:43.720Z,3.90
2023-05-09T19:12:10.227Z,4.50
2023-05-09T19:14:37.876Z,4.38
2023-05-09T19:17:07.762Z,4.80
2023-05-09T19:19:34.503Z,6.22
2023-05-09T19:22:01.724Z,6.72
2023-05-09T19:24:28.245Z,6.97
2023-05-09T19:26:54.747Z,7.18
2023-05-09T19:29:21.207Z,7.55
2023-05-09T19:31:47.709Z,7.03
2023-05-09T19:34:14.236Z,6.95
2023-05-09T19:36:40.755Z,5.90
2023-05-09T19:39:08.834Z,7.80
2023-05-09T19:41:35.427Z,6.38
2023-05-09T19:44:02.165Z,6.22
2023-05-09T19:46:28.710Z,5.22
2023-05-09T19:48:55.245Z,4.78
2023-05-09T19:51:21.752Z,5.57
2023-05-09T19:53:48.235Z,5.05
2023-05-09T19:56:14.708Z,4.65
2023-05-09T19:58:41.375Z,4.78
2023-05-09T20:01:08.044Z,4.63
2023-05-09T20:03:38.523Z,4.50
2023-05-09T20:06:05.758Z,5.72
2023-05-09T20:08:32.240Z,5.22
2023-05-09T20:11:00.078Z,5.40
2023-05-09T20:13:27.434Z,5.43
2023-05-09T20:15:54.013Z,5.40
2023-05-09T20:18:20.539Z,4.93
2023-05-09T20:20:47.001Z,5.32
2023-05-09T20:23:13.548Z,5.43
2023-05-09T20:25:40.286Z,5.60
2023-05-09T20:28:06.824Z,5.78
2023-05-09T20:30:33.386Z,5.97
2023-05-09T20:33:01.069Z,5.15
2023-05-09T20:35:27.865Z,4.90
2023-05-09T20:37:54.613Z,5.25
2023-05-09T20:40:21.110Z,5.95
2023-05-09T20:42:47.560Z,5.28
2023-05-09T20:45:14.074Z,4.72
2023-05-09T20:47:40.627Z,4.90
2023-05-09T20:50:07.736Z,5.47
2023-05-09T20:52:34.182Z,5.15
2023-05-09T20:55:01.223Z,5.75
2023-05-09T20:57:27.781Z,5.50
2023-05-09T20:59:54.239Z,5.35
2023-05-09T21:02:20.843Z,5.60
2023-05-09T21:04:47.311Z,4.35
2023-05-09T21:07:13.814Z,5.05
2023-05-09T21:09:41.097Z,4.95
2023-05-09T21:12:09.273Z,4.97
2023-05-09T21:14:37.497Z,5.13
2023-05-09T21:17:04.010Z,4.78
2023-05-09T21:19:30.587Z,4.80
2023-05-09T21:21:58.300Z,4.82
2023-05-09T21:24:24.792Z,6.30
2023-05-09T21:26:51.320Z,3.38
2023-05-09T21:29:17.733Z,3.13
2023-05-09T21:31:44.169Z,3.00
2023-05-09T21:34:10.764Z,2.60
2023-05-09T21:36:38.292Z,2.97
2023-05-09T21:39:08.830Z,2.88
2023-05-09T21:41:36.304Z,2.60
2023-05-09T21:44:03.158Z,2.60
2023-05-09T21:46:33.248Z,3.20
2023-05-09T21:49:00.753Z,2.80
2023-05-09T21:51:28.374Z,2.80
2023-05-09T21:53:54.862Z,3.10
2023-05-09T21:56:22.852Z,2.53
2023-05-09T21:58:49.325Z,2.65
2023-05-09T22:01:19.391Z,3.25
2023-05-09T22:03:46.026Z,2.90
2023-05-09T22:06:13.407Z,2.85
2023-05-09T22:08:39.849Z,3.25
2023-05-09T22:11:06.242Z,3.50
2023-05-09T22:13:32.840Z,3.70
2023-05-09T22:15:59.284Z,3.17
2023-05-09T22:18:27.088Z,3.42
2023-05-09T22:20:53.554Z,2.55
2023-05-09T22:23:19.953Z,2.83
2023-05-09T22:25:46.403Z,3.42
2023-05-09T22:28:12.850Z,3.72
2023-05-09T22:30:39.307Z,3.42
2023-05-09T22:33:05.818Z,4.00
2023-05-09T22:35:32.323Z,4.57
2023-05-09T22:37:58.787Z,4.65
2023-05-09T22:40:26.348Z,4.80
2023-05-09T22:42:53.442Z,5.68
2023-05-09T22:45:20.692Z,5.10
2023-05-09T22:47:47.353Z,5.47
2023-05-09T22:50:13.974Z,5.80
2023-05-09T22:52:40.638Z,4.80
2023-05-09T22:55:07.461Z,5.15
2023-05-09T22:57:33.935Z,5.47
2023-05-09T23:00:00.315Z,5.68
2023-05-09T23:02:26.980Z,5.70
2023-05-09T23:04:53.531Z,5.30
2023-05-09T23:07:20.087Z,5.70
2023-05-09T23:09:46.608Z,5.88
2023-05-09T23:12:13.152Z,5.07
2023-05-09T23:14:39.750Z,5.65
2023-05-09T23:17:06.239Z,5.97
2023-05-09T23:19:33.191Z,5.95
2023-05-09T23:21:59.683Z,6.22
2023-05-09T23:24:26.155Z,5.63
2023-05-09T23:26:53.664Z,5.55
2023-05-09T23:29:20.109Z,6.15
2023-05-09T23:31:46.972Z,6.20
2023-05-09T23:34:13.760Z,6.22
2023-05-09T23:36:40.166Z,6.28
2023-05-09T23:39:06.633Z,6.32
2023-05-09T23:41:33.267Z,6.60
2023-05-09T23:44:01.909Z,7.40
2023-05-09T23:46:28.768Z,6.45
2023-05-09T23:48:56.218Z,6.10
2023-05-09T23:51:22.756Z,5.45
2023-05-09T23:53:49.364Z,6.22
2023-05-09T23:56:16.063Z,6.57
2023-05-09T23:58:43.102Z,6.75
